SJX802 RCTP-RJAA
Flight info
| Callsign | SJX802 |
|---|---|
| Flight time | 2h 32m |
| Altitude | 35000 |
| Route | MOLKA1A MOLKA M750 MUKEP Y891 AGIMO Y89 GUPER Y81 RUTAS |
| Aircraft | A35K/H-SDE2E3GHIJ3J4J5LM1ORWXY/LB1D1 |
Departure
| Time | 2026-05-06 04:28 |
|---|---|
| Airport | Taiwan Taoyuan International Airport (RCTP) |
Arrival
| Time | 2026-05-06 07:00 |
|---|---|
| Airport | Narita International Airport (RJAA) |
| Time | Latitude | Longitude | Altitude | Speed | Heading |
|---|---|---|---|---|---|
| 2026-05-06 04:16 | 25.07323 | 121.23452 | 106 ft | 0 kts | 319° |
| 2026-05-06 04:21 | 25.07322 | 121.23453 | 106 ft | 1 kts | 319° |
| 2026-05-06 04:21 | 25.07308 | 121.23466 | 104 ft | 3 kts | 319° |
| 2026-05-06 04:21 | 25.07293 | 121.23481 | 104 ft | 3 kts | 319° |
| 2026-05-06 04:21 | 25.07281 | 121.23492 | 104 ft | 3 kts | 315° |
| 2026-05-06 04:22 | 25.07270 | 121.23505 | 104 ft | 3 kts | 295° |
| 2026-05-06 04:22 | 25.07265 | 121.23520 | 104 ft | 3 kts | 265° |
| 2026-05-06 04:22 | 25.07267 | 121.23534 | 104 ft | 3 kts | 237° |
| 2026-05-06 04:23 | 25.07272 | 121.23543 | 104 ft | 0 kts | 230° |
| 2026-05-06 04:23 | 25.07263 | 121.23531 | 103 ft | 4 kts | 229° |
| 2026-05-06 04:23 | 25.07231 | 121.23490 | 105 ft | 10 kts | 229° |
| 2026-05-06 04:23 | 25.07174 | 121.23417 | 105 ft | 16 kts | 229° |
| 2026-05-06 04:24 | 25.07088 | 121.23308 | 106 ft | 22 kts | 229° |
| 2026-05-06 04:24 | 25.06975 | 121.23165 | 105 ft | 25 kts | 229° |
| 2026-05-06 04:24 | 25.06863 | 121.23024 | 105 ft | 25 kts | 229° |
| 2026-05-06 04:24 | 25.06751 | 121.22880 | 103 ft | 26 kts | 229° |
| 2026-05-06 04:25 | 25.06639 | 121.22738 | 105 ft | 23 kts | 229° |
| 2026-05-06 04:25 | 25.06527 | 121.22597 | 105 ft | 20 kts | 229° |
| 2026-05-06 04:25 | 25.06422 | 121.22464 | 106 ft | 25 kts | 229° |
| 2026-05-06 04:25 | 25.06307 | 121.22341 | 105 ft | 17 kts | 198° |
| 2026-05-06 04:26 | 25.06184 | 121.22390 | 102 ft | 22 kts | 148° |
| 2026-05-06 04:26 | 25.06154 | 121.22419 | 105 ft | 5 kts | 124° |
| 2026-05-06 04:26 | 25.06150 | 121.22442 | 104 ft | 1 kts | 80° |
| 2026-05-06 04:26 | 25.06162 | 121.22455 | 102 ft | 5 kts | 49° |
| 2026-05-06 04:27 | 25.06243 | 121.22557 | 104 ft | 44 kts | 49° |
| 2026-05-06 04:27 | 25.06578 | 121.22982 | 101 ft | 102 kts | 49° |
| 2026-05-06 04:27 | 25.07155 | 121.23714 | 102 ft | 150 kts | 49° |
| 2026-05-06 04:27 | 25.07901 | 121.24646 | 487 ft | 163 kts | 45° |
| 2026-05-06 04:28 | 25.08656 | 121.25601 | 1020 ft | 167 kts | 49° |
| 2026-05-06 04:28 | 25.09428 | 121.26618 | 1452 ft | 184 kts | 51° |
| 2026-05-06 04:28 | 25.10297 | 121.27775 | 1692 ft | 207 kts | 50° |
| 2026-05-06 04:28 | 25.11276 | 121.29076 | 1929 ft | 234 kts | 50° |
| 2026-05-06 04:29 | 25.12399 | 121.30493 | 2381 ft | 254 kts | 47° |
| 2026-05-06 04:29 | 25.13648 | 121.31908 | 3005 ft | 261 kts | 45° |
| 2026-05-06 04:29 | 25.14917 | 121.33331 | 3520 ft | 269 kts | 45° |
| 2026-05-06 04:29 | 25.16237 | 121.34826 | 4091 ft | 277 kts | 45° |
| 2026-05-06 04:30 | 25.17594 | 121.36373 | 4682 ft | 282 kts | 45° |
| 2026-05-06 04:30 | 25.18971 | 121.37950 | 5299 ft | 286 kts | 45° |
| 2026-05-06 04:30 | 25.20354 | 121.39539 | 5980 ft | 288 kts | 45° |
| 2026-05-06 04:30 | 25.21754 | 121.41153 | 6597 ft | 293 kts | 45° |
| 2026-05-06 04:31 | 25.23175 | 121.42790 | 7221 ft | 298 kts | 45° |
| 2026-05-06 04:31 | 25.24617 | 121.44452 | 7911 ft | 303 kts | 44° |
| 2026-05-06 04:31 | 25.26092 | 121.46152 | 8678 ft | 309 kts | 44° |
| 2026-05-06 04:31 | 25.27471 | 121.47990 | 9380 ft | 315 kts | 57° |
| 2026-05-06 04:32 | 25.28303 | 121.50240 | 10035 ft | 319 kts | 76° |
| 2026-05-06 04:32 | 25.28798 | 121.52677 | 10409 ft | 333 kts | 79° |
| 2026-05-06 04:32 | 25.29274 | 121.55256 | 10670 ft | 351 kts | 79° |
| 2026-05-06 04:32 | 25.29776 | 121.57926 | 10983 ft | 368 kts | 78° |
| 2026-05-06 04:33 | 25.30313 | 121.60729 | 11245 ft | 383 kts | 78° |
| 2026-05-06 04:33 | 25.30889 | 121.63711 | 11569 ft | 396 kts | 78° |
| 2026-05-06 04:33 | 25.31464 | 121.66666 | 12065 ft | 400 kts | 78° |
| 2026-05-06 04:33 | 25.32053 | 121.69690 | 12615 ft | 404 kts | 78° |
| 2026-05-06 04:34 | 25.32648 | 121.72744 | 13172 ft | 408 kts | 78° |
| 2026-05-06 04:34 | 25.33247 | 121.75822 | 13734 ft | 411 kts | 78° |
| 2026-05-06 04:34 | 25.33849 | 121.78920 | 14209 ft | 414 kts | 78° |
| 2026-05-06 04:34 | 25.34456 | 121.82045 | 14655 ft | 418 kts | 78° |
| 2026-05-06 04:35 | 25.35069 | 121.85202 | 15123 ft | 421 kts | 77° |
| 2026-05-06 04:35 | 25.35685 | 121.88382 | 15579 ft | 425 kts | 77° |
| 2026-05-06 04:35 | 25.36306 | 121.91592 | 16041 ft | 428 kts | 77° |
| 2026-05-06 04:35 | 25.36930 | 121.94818 | 16492 ft | 431 kts | 77° |
| 2026-05-06 04:36 | 25.37555 | 121.98056 | 16962 ft | 434 kts | 77° |
| 2026-05-06 04:36 | 25.38190 | 122.01346 | 17387 ft | 438 kts | 77° |
| 2026-05-06 04:36 | 25.38826 | 122.04646 | 17835 ft | 441 kts | 77° |
| 2026-05-06 04:36 | 25.39466 | 122.07973 | 18289 ft | 444 kts | 77° |
| 2026-05-06 04:37 | 25.40109 | 122.11320 | 18646 ft | 448 kts | 77° |
| 2026-05-06 04:37 | 25.40757 | 122.14699 | 18976 ft | 452 kts | 77° |
| 2026-05-06 04:37 | 25.41413 | 122.18120 | 19324 ft | 456 kts | 77° |
| 2026-05-06 04:37 | 25.42206 | 122.21526 | 19684 ft | 459 kts | 70° |
| 2026-05-06 04:38 | 25.43271 | 122.24862 | 20047 ft | 462 kts | 68° |
| 2026-05-06 04:38 | 25.44400 | 122.28197 | 20399 ft | 466 kts | 68° |
| 2026-05-06 04:38 | 25.45545 | 122.31573 | 20770 ft | 470 kts | 68° |
| 2026-05-06 04:38 | 25.46692 | 122.34970 | 21151 ft | 474 kts | 68° |
| 2026-05-06 04:39 | 25.47850 | 122.38409 | 21521 ft | 478 kts | 68° |
| 2026-05-06 04:39 | 25.49015 | 122.41878 | 21875 ft | 482 kts | 68° |
| 2026-05-06 04:39 | 25.50183 | 122.45364 | 22244 ft | 485 kts | 68° |
| 2026-05-06 04:39 | 25.51358 | 122.48873 | 22617 ft | 489 kts | 68° |
| 2026-05-06 04:40 | 25.52528 | 122.52369 | 22991 ft | 492 kts | 68° |
| 2026-05-06 04:40 | 25.53721 | 122.55939 | 23338 ft | 496 kts | 68° |
| 2026-05-06 04:40 | 25.54937 | 122.59580 | 23719 ft | 499 kts | 68° |
| 2026-05-06 04:40 | 25.56128 | 122.63152 | 24076 ft | 501 kts | 68° |
| 2026-05-06 04:41 | 25.57351 | 122.66822 | 24461 ft | 503 kts | 68° |
| 2026-05-06 04:41 | 25.58565 | 122.70468 | 24845 ft | 506 kts | 68° |
| 2026-05-06 04:41 | 25.59769 | 122.74091 | 25250 ft | 508 kts | 68° |
| 2026-05-06 04:41 | 25.60992 | 122.77771 | 25671 ft | 510 kts | 68° |
| 2026-05-06 04:42 | 25.62214 | 122.81451 | 26060 ft | 513 kts | 68° |
| 2026-05-06 04:42 | 25.63452 | 122.85184 | 26419 ft | 516 kts | 68° |
| 2026-05-06 04:42 | 25.64690 | 122.88921 | 26804 ft | 519 kts | 68° |
| 2026-05-06 04:42 | 25.65955 | 122.92672 | 27180 ft | 522 kts | 68° |
| 2026-05-06 04:43 | 25.67237 | 122.96456 | 27563 ft | 525 kts | 68° |
| 2026-05-06 04:43 | 25.68523 | 123.00259 | 27891 ft | 528 kts | 69° |
| 2026-05-06 04:43 | 25.69813 | 123.04083 | 28272 ft | 531 kts | 69° |
| 2026-05-06 04:43 | 25.71105 | 123.07924 | 28633 ft | 534 kts | 69° |
| 2026-05-06 04:44 | 25.72406 | 123.11794 | 28967 ft | 537 kts | 69° |
| 2026-05-06 04:44 | 25.73712 | 123.15685 | 29290 ft | 540 kts | 69° |
| 2026-05-06 04:44 | 25.75024 | 123.19600 | 29606 ft | 543 kts | 69° |
| 2026-05-06 04:44 | 25.76345 | 123.23543 | 29920 ft | 546 kts | 70° |
| 2026-05-06 04:45 | 25.77670 | 123.27505 | 30184 ft | 550 kts | 70° |
| 2026-05-06 04:45 | 25.79002 | 123.31489 | 30386 ft | 554 kts | 70° |
| 2026-05-06 04:45 | 25.80344 | 123.35511 | 30636 ft | 556 kts | 70° |
| 2026-05-06 04:45 | 25.81690 | 123.39547 | 30874 ft | 559 kts | 69° |
| 2026-05-06 04:46 | 25.83045 | 123.43615 | 31102 ft | 562 kts | 69° |
| 2026-05-06 04:46 | 25.84400 | 123.47686 | 31354 ft | 564 kts | 69° |
| 2026-05-06 04:46 | 25.85834 | 123.51737 | 31669 ft | 563 kts | 64° |
| 2026-05-06 04:46 | 25.87755 | 123.55514 | 32034 ft | 561 kts | 52° |
| 2026-05-06 04:47 | 25.90242 | 123.58808 | 32323 ft | 556 kts | 40° |
| 2026-05-06 04:47 | 25.93211 | 123.61516 | 32586 ft | 549 kts | 28° |
| 2026-05-06 04:47 | 25.96503 | 123.63574 | 32913 ft | 541 kts | 20° |
| 2026-05-06 04:47 | 25.99914 | 123.65362 | 33283 ft | 539 kts | 19° |
| 2026-05-06 04:48 | 26.03299 | 123.67113 | 33657 ft | 538 kts | 19° |
| 2026-05-06 04:48 | 26.06690 | 123.68875 | 33964 ft | 537 kts | 19° |
| 2026-05-06 04:48 | 26.10075 | 123.70639 | 34269 ft | 536 kts | 19° |
| 2026-05-06 04:48 | 26.13440 | 123.72398 | 34568 ft | 535 kts | 19° |
| 2026-05-06 04:49 | 26.16820 | 123.74167 | 34832 ft | 535 kts | 19° |
| 2026-05-06 04:49 | 26.20189 | 123.75931 | 34989 ft | 537 kts | 19° |
| 2026-05-06 04:49 | 26.23579 | 123.77707 | 35010 ft | 542 kts | 19° |
| 2026-05-06 04:50 | 26.30429 | 123.81304 | 35013 ft | 544 kts | 19° |
| 2026-05-06 04:50 | 26.37279 | 123.84908 | 35023 ft | 544 kts | 19° |
| 2026-05-06 04:51 | 26.44125 | 123.88513 | 35018 ft | 545 kts | 19° |
| 2026-05-06 04:51 | 26.50983 | 123.92129 | 35018 ft | 546 kts | 19° |
| 2026-05-06 04:52 | 26.57851 | 123.95756 | 35022 ft | 547 kts | 19° |
| 2026-05-06 04:52 | 26.64628 | 123.99683 | 35021 ft | 556 kts | 30° |
| 2026-05-06 04:52 | 26.67624 | 124.02456 | 35027 ft | 563 kts | 42° |
| 2026-05-06 04:53 | 26.70268 | 124.05701 | 35018 ft | 566 kts | 46° |
| 2026-05-06 04:53 | 26.75310 | 124.12432 | 35020 ft | 569 kts | 48° |
| 2026-05-06 04:54 | 26.80330 | 124.19293 | 35017 ft | 570 kts | 47° |
| 2026-05-06 04:54 | 26.85420 | 124.26191 | 35022 ft | 572 kts | 47° |
| 2026-05-06 04:55 | 26.90479 | 124.33002 | 35019 ft | 572 kts | 47° |
| 2026-05-06 04:55 | 26.95579 | 124.39866 | 35026 ft | 573 kts | 47° |
| 2026-05-06 04:56 | 27.00676 | 124.46745 | 35012 ft | 573 kts | 47° |
| 2026-05-06 04:56 | 27.05761 | 124.53610 | 35014 ft | 574 kts | 47° |
| 2026-05-06 04:57 | 27.10866 | 124.60505 | 35020 ft | 574 kts | 47° |
| 2026-05-06 04:57 | 27.15967 | 124.67412 | 35020 ft | 575 kts | 47° |
| 2026-05-06 04:58 | 27.21076 | 124.74343 | 35018 ft | 576 kts | 47° |
| 2026-05-06 04:58 | 27.26187 | 124.81288 | 35028 ft | 576 kts | 48° |
| 2026-05-06 04:59 | 27.31297 | 124.88242 | 35024 ft | 577 kts | 48° |
| 2026-05-06 04:59 | 27.36402 | 124.95200 | 35023 ft | 578 kts | 48° |
| 2026-05-06 05:00 | 27.41521 | 125.02191 | 35026 ft | 578 kts | 47° |
| 2026-05-06 05:00 | 27.46655 | 125.09130 | 35024 ft | 578 kts | 47° |
| 2026-05-06 05:01 | 27.51828 | 125.16084 | 35026 ft | 578 kts | 47° |
| 2026-05-06 05:01 | 27.56972 | 125.23025 | 35024 ft | 578 kts | 47° |
| 2026-05-06 05:02 | 27.62116 | 125.29992 | 35025 ft | 578 kts | 47° |
| 2026-05-06 05:02 | 27.67249 | 125.36962 | 35030 ft | 577 kts | 47° |
| 2026-05-06 05:03 | 27.72338 | 125.43882 | 35024 ft | 576 kts | 47° |
| 2026-05-06 05:03 | 27.77456 | 125.50851 | 35026 ft | 576 kts | 47° |
| 2026-05-06 05:04 | 27.82567 | 125.57820 | 35024 ft | 576 kts | 47° |
| 2026-05-06 05:04 | 27.87670 | 125.64791 | 35026 ft | 576 kts | 47° |
| 2026-05-06 05:05 | 27.92769 | 125.71768 | 35027 ft | 576 kts | 48° |
| 2026-05-06 05:05 | 27.97053 | 125.77639 | 35017 ft | 576 kts | 48° |
| 2026-05-06 05:06 | 28.02975 | 125.85768 | 35020 ft | 576 kts | 48° |
| 2026-05-06 05:06 | 28.07208 | 125.91589 | 35023 ft | 576 kts | 48° |
| 2026-05-06 05:07 | 28.12307 | 125.98610 | 35022 ft | 577 kts | 48° |
| 2026-05-06 05:07 | 28.17397 | 126.05629 | 35023 ft | 577 kts | 48° |
| 2026-05-06 05:08 | 28.22482 | 126.12655 | 35020 ft | 577 kts | 48° |
| 2026-05-06 05:08 | 28.27575 | 126.19702 | 35027 ft | 577 kts | 48° |
| 2026-05-06 05:09 | 28.32653 | 126.26742 | 35013 ft | 577 kts | 48° |
| 2026-05-06 05:09 | 28.37730 | 126.33790 | 35015 ft | 576 kts | 48° |
| 2026-05-06 05:10 | 28.42793 | 126.40832 | 35029 ft | 575 kts | 48° |
| 2026-05-06 05:10 | 28.47842 | 126.47866 | 35017 ft | 574 kts | 48° |
| 2026-05-06 05:11 | 28.52859 | 126.54866 | 35018 ft | 574 kts | 49° |
| 2026-05-06 05:11 | 28.57926 | 126.61947 | 35023 ft | 574 kts | 49° |
| 2026-05-06 05:12 | 28.62966 | 126.69004 | 35024 ft | 574 kts | 49° |
| 2026-05-06 05:12 | 28.67966 | 126.76018 | 35021 ft | 574 kts | 49° |
| 2026-05-06 05:13 | 28.72999 | 126.83088 | 35021 ft | 574 kts | 49° |
| 2026-05-06 05:13 | 28.78010 | 126.90138 | 35025 ft | 574 kts | 49° |
| 2026-05-06 05:14 | 28.83039 | 126.97227 | 35020 ft | 574 kts | 49° |
| 2026-05-06 05:14 | 28.88066 | 127.04325 | 35024 ft | 574 kts | 49° |
| 2026-05-06 05:15 | 28.93079 | 127.11416 | 35024 ft | 575 kts | 49° |
| 2026-05-06 05:15 | 28.98100 | 127.18528 | 35027 ft | 575 kts | 49° |
| 2026-05-06 05:16 | 29.03118 | 127.25651 | 35023 ft | 576 kts | 50° |
| 2026-05-06 05:16 | 29.08137 | 127.32787 | 35025 ft | 576 kts | 50° |
| 2026-05-06 05:17 | 29.13151 | 127.39928 | 35023 ft | 576 kts | 50° |
| 2026-05-06 05:17 | 29.18165 | 127.47081 | 35026 ft | 576 kts | 50° |
| 2026-05-06 05:18 | 29.23179 | 127.54246 | 35024 ft | 577 kts | 50° |
| 2026-05-06 05:18 | 29.28190 | 127.61420 | 35028 ft | 577 kts | 50° |
| 2026-05-06 05:19 | 29.33200 | 127.68605 | 35024 ft | 578 kts | 50° |
| 2026-05-06 05:19 | 29.38218 | 127.75814 | 35027 ft | 578 kts | 50° |
| 2026-05-06 05:20 | 29.43226 | 127.83021 | 35027 ft | 578 kts | 50° |
| 2026-05-06 05:20 | 29.48234 | 127.90242 | 35030 ft | 578 kts | 50° |
| 2026-05-06 05:21 | 29.53204 | 127.97420 | 35029 ft | 578 kts | 50° |
| 2026-05-06 05:21 | 29.58237 | 128.04697 | 35028 ft | 578 kts | 50° |
| 2026-05-06 05:22 | 29.63246 | 128.11945 | 35028 ft | 579 kts | 51° |
| 2026-05-06 05:22 | 29.68252 | 128.19203 | 35037 ft | 579 kts | 51° |
| 2026-05-06 05:23 | 29.73220 | 128.26420 | 35036 ft | 580 kts | 51° |
| 2026-05-06 05:23 | 29.80719 | 128.37341 | 35035 ft | 580 kts | 51° |
| 2026-05-06 05:24 | 29.85763 | 128.44702 | 35033 ft | 581 kts | 51° |
| 2026-05-06 05:24 | 29.90716 | 128.51929 | 35032 ft | 575 kts | 53° |
| 2026-05-06 05:25 | 29.95640 | 128.59147 | 35040 ft | 572 kts | 53° |
| 2026-05-06 05:25 | 30.00552 | 128.66364 | 35036 ft | 572 kts | 53° |
| 2026-05-06 05:26 | 30.05465 | 128.73590 | 35036 ft | 572 kts | 53° |
| 2026-05-06 05:26 | 30.10370 | 128.80812 | 35040 ft | 572 kts | 53° |
| 2026-05-06 05:27 | 30.15270 | 128.88041 | 35039 ft | 572 kts | 53° |
| 2026-05-06 05:27 | 30.20176 | 128.95291 | 35037 ft | 572 kts | 53° |
| 2026-05-06 05:28 | 30.25066 | 129.02538 | 35035 ft | 572 kts | 53° |
| 2026-05-06 05:28 | 30.29956 | 129.09795 | 35033 ft | 572 kts | 53° |
| 2026-05-06 05:29 | 30.34854 | 129.17069 | 35038 ft | 573 kts | 53° |
| 2026-05-06 05:29 | 30.39746 | 129.24348 | 35040 ft | 573 kts | 53° |
| 2026-05-06 05:30 | 30.44640 | 129.31647 | 35039 ft | 573 kts | 54° |
| 2026-05-06 05:30 | 30.49523 | 129.38944 | 35045 ft | 573 kts | 54° |
| 2026-05-06 05:31 | 30.54395 | 129.46238 | 35046 ft | 573 kts | 54° |
| 2026-05-06 05:31 | 30.59274 | 129.53557 | 35050 ft | 573 kts | 54° |
| 2026-05-06 05:32 | 30.64153 | 129.60887 | 35049 ft | 574 kts | 54° |
| 2026-05-06 05:32 | 30.69033 | 129.68234 | 35046 ft | 575 kts | 54° |
| 2026-05-06 05:33 | 30.73914 | 129.75595 | 35046 ft | 575 kts | 54° |
| 2026-05-06 05:33 | 30.78791 | 129.82963 | 35051 ft | 575 kts | 54° |
| 2026-05-06 05:34 | 30.83648 | 129.90348 | 35039 ft | 574 kts | 56° |
| 2026-05-06 05:34 | 30.87988 | 129.98128 | 35059 ft | 573 kts | 60° |
| 2026-05-06 05:35 | 30.92184 | 130.05992 | 35060 ft | 573 kts | 61° |
| 2026-05-06 05:35 | 30.96368 | 130.13912 | 35066 ft | 573 kts | 61° |
| 2026-05-06 05:36 | 31.00541 | 130.21811 | 35051 ft | 573 kts | 61° |
| 2026-05-06 05:36 | 31.04725 | 130.29730 | 35050 ft | 573 kts | 61° |
| 2026-05-06 05:37 | 31.08902 | 130.37646 | 35066 ft | 573 kts | 61° |
| 2026-05-06 05:37 | 31.13064 | 130.45550 | 35066 ft | 572 kts | 62° |
| 2026-05-06 05:38 | 31.17229 | 130.53480 | 35068 ft | 572 kts | 62° |
| 2026-05-06 05:38 | 31.21384 | 130.61398 | 35074 ft | 572 kts | 62° |
| 2026-05-06 05:39 | 31.25512 | 130.69288 | 35076 ft | 572 kts | 62° |
| 2026-05-06 05:39 | 31.29688 | 130.77291 | 35071 ft | 572 kts | 62° |
| 2026-05-06 05:40 | 31.33826 | 130.85235 | 35083 ft | 572 kts | 62° |
| 2026-05-06 05:40 | 31.37966 | 130.93195 | 35086 ft | 572 kts | 62° |
| 2026-05-06 05:41 | 31.42099 | 131.01161 | 35087 ft | 573 kts | 62° |
| 2026-05-06 05:41 | 31.46213 | 131.09105 | 35087 ft | 574 kts | 62° |
| 2026-05-06 05:42 | 31.50347 | 131.17105 | 35091 ft | 574 kts | 62° |
| 2026-05-06 05:42 | 31.54476 | 131.25113 | 35094 ft | 575 kts | 62° |
| 2026-05-06 05:43 | 31.58615 | 131.33156 | 35099 ft | 576 kts | 62° |
| 2026-05-06 05:43 | 31.62751 | 131.41219 | 35100 ft | 576 kts | 62° |
| 2026-05-06 05:44 | 31.66883 | 131.49288 | 35102 ft | 577 kts | 62° |
| 2026-05-06 05:44 | 31.71013 | 131.57369 | 35101 ft | 577 kts | 63° |
| 2026-05-06 05:45 | 31.75141 | 131.65465 | 35100 ft | 578 kts | 63° |
| 2026-05-06 05:45 | 31.79268 | 131.73580 | 35099 ft | 579 kts | 63° |
| 2026-05-06 05:46 | 31.83392 | 131.81707 | 35099 ft | 580 kts | 63° |
| 2026-05-06 05:46 | 31.87522 | 131.89860 | 35099 ft | 581 kts | 63° |
| 2026-05-06 05:47 | 31.91650 | 131.98029 | 35082 ft | 582 kts | 63° |
| 2026-05-06 05:47 | 31.95780 | 132.06218 | 35106 ft | 582 kts | 63° |
| 2026-05-06 05:48 | 31.99915 | 132.14435 | 35088 ft | 582 kts | 63° |
| 2026-05-06 05:48 | 32.04040 | 132.22649 | 35088 ft | 583 kts | 63° |
| 2026-05-06 05:49 | 32.08161 | 132.30874 | 35104 ft | 583 kts | 63° |
| 2026-05-06 05:49 | 32.12283 | 132.39120 | 35105 ft | 584 kts | 63° |
| 2026-05-06 05:50 | 32.16150 | 132.47507 | 35091 ft | 581 kts | 68° |
| 2026-05-06 05:50 | 32.19665 | 132.56105 | 35107 ft | 581 kts | 69° |
| 2026-05-06 05:51 | 32.22584 | 132.63252 | 35095 ft | 582 kts | 68° |
| 2026-05-06 05:51 | 32.26769 | 132.73276 | 35101 ft | 583 kts | 68° |
| 2026-05-06 05:52 | 32.29782 | 132.80422 | 35105 ft | 584 kts | 68° |
| 2026-05-06 05:52 | 32.33404 | 132.89020 | 35102 ft | 585 kts | 68° |
| 2026-05-06 05:53 | 32.37016 | 132.97628 | 35102 ft | 585 kts | 68° |
| 2026-05-06 05:53 | 32.40628 | 133.06266 | 35105 ft | 585 kts | 68° |
| 2026-05-06 05:54 | 32.44234 | 133.14912 | 35103 ft | 586 kts | 68° |
| 2026-05-06 05:54 | 32.47836 | 133.23570 | 35104 ft | 587 kts | 68° |
| 2026-05-06 05:55 | 32.51441 | 133.32256 | 35106 ft | 587 kts | 68° |
| 2026-05-06 05:55 | 32.55041 | 133.40949 | 35108 ft | 588 kts | 68° |
| 2026-05-06 05:56 | 32.58644 | 133.49661 | 35106 ft | 588 kts | 68° |
| 2026-05-06 05:56 | 32.62236 | 133.58379 | 35104 ft | 589 kts | 68° |
| 2026-05-06 05:57 | 32.65817 | 133.67111 | 35111 ft | 589 kts | 68° |
| 2026-05-06 05:57 | 32.69381 | 133.75802 | 35110 ft | 589 kts | 67° |
| 2026-05-06 05:58 | 32.72987 | 133.84605 | 35109 ft | 589 kts | 68° |
| 2026-05-06 05:58 | 32.76539 | 133.93306 | 35114 ft | 589 kts | 68° |
| 2026-05-06 05:59 | 32.80107 | 134.02073 | 35115 ft | 590 kts | 68° |
| 2026-05-06 05:59 | 32.83144 | 134.11066 | 35115 ft | 584 kts | 77° |
| 2026-05-06 06:00 | 32.85675 | 134.20838 | 35118 ft | 583 kts | 78° |
| 2026-05-06 06:00 | 32.87934 | 134.30019 | 35121 ft | 582 kts | 78° |
| 2026-05-06 06:01 | 32.90264 | 134.39516 | 35122 ft | 582 kts | 78° |
| 2026-05-06 06:01 | 32.92543 | 134.48758 | 35121 ft | 581 kts | 78° |
| 2026-05-06 06:02 | 32.94819 | 134.57984 | 35124 ft | 580 kts | 78° |
| 2026-05-06 06:02 | 32.97089 | 134.67215 | 35127 ft | 580 kts | 78° |
| 2026-05-06 06:03 | 32.99339 | 134.76425 | 35120 ft | 578 kts | 79° |
| 2026-05-06 06:03 | 33.00761 | 134.85773 | 35126 ft | 571 kts | 88° |
| 2026-05-06 06:04 | 33.01815 | 134.95121 | 35138 ft | 570 kts | 89° |
| 2026-05-06 06:04 | 33.02803 | 135.04497 | 35138 ft | 569 kts | 89° |
| 2026-05-06 06:05 | 33.03785 | 135.13794 | 35130 ft | 569 kts | 89° |
| 2026-05-06 06:05 | 33.04784 | 135.23149 | 35129 ft | 569 kts | 89° |
| 2026-05-06 06:06 | 33.05777 | 135.32496 | 35126 ft | 569 kts | 89° |
| 2026-05-06 06:06 | 33.06761 | 135.41854 | 35128 ft | 568 kts | 89° |
| 2026-05-06 06:07 | 33.07737 | 135.51199 | 35129 ft | 569 kts | 89° |
| 2026-05-06 06:07 | 33.08707 | 135.60560 | 35129 ft | 569 kts | 89° |
| 2026-05-06 06:08 | 33.09677 | 135.69939 | 35124 ft | 571 kts | 89° |
| 2026-05-06 06:08 | 33.10636 | 135.79338 | 35128 ft | 571 kts | 89° |
| 2026-05-06 06:09 | 33.11588 | 135.88742 | 35131 ft | 571 kts | 89° |
| 2026-05-06 06:09 | 33.12532 | 135.98134 | 35134 ft | 571 kts | 89° |
| 2026-05-06 06:10 | 33.13467 | 136.07491 | 35138 ft | 571 kts | 89° |
| 2026-05-06 06:10 | 33.14404 | 136.16957 | 35136 ft | 572 kts | 88° |
| 2026-05-06 06:11 | 33.15331 | 136.26385 | 35139 ft | 572 kts | 88° |
| 2026-05-06 06:11 | 33.16245 | 136.35750 | 35147 ft | 572 kts | 88° |
| 2026-05-06 06:12 | 33.17163 | 136.45234 | 35141 ft | 572 kts | 88° |
| 2026-05-06 06:12 | 33.18073 | 136.54680 | 35152 ft | 572 kts | 88° |
| 2026-05-06 06:13 | 33.18973 | 136.64117 | 35142 ft | 573 kts | 88° |
| 2026-05-06 06:13 | 33.19862 | 136.73568 | 35137 ft | 573 kts | 88° |
| 2026-05-06 06:14 | 33.20595 | 136.81411 | 35149 ft | 573 kts | 88° |
| 2026-05-06 06:14 | 33.21624 | 136.92485 | 35149 ft | 573 kts | 88° |
| 2026-05-06 06:15 | 33.22495 | 137.01945 | 35140 ft | 574 kts | 88° |
| 2026-05-06 06:15 | 33.23311 | 137.09826 | 35149 ft | 577 kts | 82° |
| 2026-05-06 06:16 | 33.25145 | 137.20741 | 35138 ft | 578 kts | 81° |
| 2026-05-06 06:16 | 33.26545 | 137.28574 | 35145 ft | 579 kts | 81° |
| 2026-05-06 06:17 | 33.28243 | 137.38044 | 35141 ft | 580 kts | 81° |
| 2026-05-06 06:17 | 33.29907 | 137.47432 | 35143 ft | 581 kts | 81° |
| 2026-05-06 06:18 | 33.31579 | 137.56957 | 35142 ft | 582 kts | 81° |
| 2026-05-06 06:18 | 33.33234 | 137.66439 | 35142 ft | 583 kts | 81° |
| 2026-05-06 06:19 | 33.34886 | 137.75944 | 35148 ft | 584 kts | 81° |
| 2026-05-06 06:19 | 33.36524 | 137.85416 | 35151 ft | 585 kts | 81° |
| 2026-05-06 06:20 | 33.38165 | 137.94940 | 35151 ft | 586 kts | 81° |
| 2026-05-06 06:20 | 33.39804 | 138.04508 | 35149 ft | 586 kts | 81° |
| 2026-05-06 06:21 | 33.41434 | 138.14064 | 35156 ft | 587 kts | 81° |
| 2026-05-06 06:21 | 33.43057 | 138.23629 | 35147 ft | 587 kts | 81° |
| 2026-05-06 06:22 | 33.45425 | 138.32961 | 35151 ft | 588 kts | 62° |
| 2026-05-06 06:22 | 33.49442 | 138.41496 | 35150 ft | 588 kts | 57° |
| 2026-05-06 06:23 | 33.53732 | 138.49849 | 35155 ft | 588 kts | 56° |
| 2026-05-06 06:23 | 33.58031 | 138.58163 | 35156 ft | 588 kts | 56° |
| 2026-05-06 06:24 | 33.62304 | 138.66537 | 35156 ft | 588 kts | 57° |
| 2026-05-06 06:24 | 33.66539 | 138.74912 | 35159 ft | 587 kts | 57° |
| 2026-05-06 06:25 | 33.70741 | 138.83248 | 35156 ft | 587 kts | 57° |
| 2026-05-06 06:26 | 33.77104 | 138.95908 | 35160 ft | 587 kts | 57° |
| 2026-05-06 06:26 | 33.81293 | 139.04252 | 35161 ft | 587 kts | 57° |
| 2026-05-06 06:27 | 33.85504 | 139.12653 | 35161 ft | 587 kts | 57° |
| 2026-05-06 06:27 | 33.89726 | 139.21099 | 35164 ft | 587 kts | 57° |
| 2026-05-06 06:28 | 33.93930 | 139.29535 | 35161 ft | 587 kts | 57° |
| 2026-05-06 06:28 | 33.98130 | 139.37982 | 35162 ft | 588 kts | 57° |
| 2026-05-06 06:29 | 34.02325 | 139.46441 | 35163 ft | 588 kts | 57° |
| 2026-05-06 06:29 | 34.06551 | 139.54876 | 35169 ft | 587 kts | 53° |
| 2026-05-06 06:30 | 34.11464 | 139.62719 | 35170 ft | 585 kts | 48° |
| 2026-05-06 06:30 | 34.16543 | 139.70399 | 35163 ft | 585 kts | 47° |
| 2026-05-06 06:31 | 34.21651 | 139.78051 | 35173 ft | 586 kts | 47° |
| 2026-05-06 06:31 | 34.26749 | 139.85731 | 35177 ft | 586 kts | 47° |
| 2026-05-06 06:32 | 34.31841 | 139.93445 | 35175 ft | 587 kts | 47° |
| 2026-05-06 06:32 | 34.36927 | 140.01183 | 35176 ft | 588 kts | 47° |
| 2026-05-06 06:33 | 34.42017 | 140.08936 | 35175 ft | 588 kts | 47° |
| 2026-05-06 06:33 | 34.46904 | 140.16909 | 35179 ft | 592 kts | 54° |
| 2026-05-06 06:34 | 34.51325 | 140.25338 | 35177 ft | 593 kts | 54° |
| 2026-05-06 06:34 | 34.55702 | 140.33805 | 35156 ft | 591 kts | 55° |
| 2026-05-06 06:34 | 34.57869 | 140.38012 | 34802 ft | 585 kts | 55° |
| 2026-05-06 06:35 | 34.60016 | 140.42185 | 34310 ft | 582 kts | 55° |
| 2026-05-06 06:35 | 34.62153 | 140.46344 | 33729 ft | 580 kts | 55° |
| 2026-05-06 06:35 | 34.64258 | 140.50443 | 33078 ft | 580 kts | 55° |
| 2026-05-06 06:35 | 34.66389 | 140.54597 | 32472 ft | 578 kts | 55° |
| 2026-05-06 06:36 | 34.68506 | 140.58732 | 31972 ft | 575 kts | 56° |
| 2026-05-06 06:36 | 34.70809 | 140.62666 | 31469 ft | 566 kts | 44° |
| 2026-05-06 06:36 | 34.73660 | 140.65843 | 30970 ft | 546 kts | 29° |
| 2026-05-06 06:36 | 34.76865 | 140.68103 | 29950 ft | 522 kts | 15° |
| 2026-05-06 06:37 | 34.80263 | 140.69324 | 28683 ft | 499 kts | 359° |
| 2026-05-06 06:37 | 34.83673 | 140.69622 | 27747 ft | 490 kts | 352° |
| 2026-05-06 06:37 | 34.87065 | 140.69768 | 27332 ft | 486 kts | 353° |
| 2026-05-06 06:37 | 34.90431 | 140.70008 | 26930 ft | 482 kts | 355° |
| 2026-05-06 06:38 | 34.93766 | 140.70319 | 26471 ft | 480 kts | 355° |
| 2026-05-06 06:38 | 34.97090 | 140.70675 | 25993 ft | 478 kts | 356° |
| 2026-05-06 06:38 | 35.00393 | 140.71055 | 25523 ft | 476 kts | 356° |
| 2026-05-06 06:38 | 35.03679 | 140.71447 | 25064 ft | 473 kts | 357° |
| 2026-05-06 06:39 | 35.06945 | 140.72077 | 24570 ft | 482 kts | 8° |
| 2026-05-06 06:39 | 35.10070 | 140.73677 | 24122 ft | 493 kts | 25° |
| 2026-05-06 06:39 | 35.12941 | 140.75973 | 23688 ft | 493 kts | 30° |
| 2026-05-06 06:39 | 35.15738 | 140.78372 | 23224 ft | 489 kts | 31° |
| 2026-05-06 06:40 | 35.18506 | 140.80736 | 22806 ft | 483 kts | 30° |
| 2026-05-06 06:40 | 35.21252 | 140.83058 | 22387 ft | 477 kts | 30° |
| 2026-05-06 06:40 | 35.23976 | 140.85345 | 21965 ft | 472 kts | 30° |
| 2026-05-06 06:40 | 35.26673 | 140.87602 | 21542 ft | 467 kts | 30° |
| 2026-05-06 06:41 | 35.29340 | 140.89830 | 21134 ft | 462 kts | 30° |
| 2026-05-06 06:41 | 35.31987 | 140.92040 | 20721 ft | 458 kts | 30° |
| 2026-05-06 06:41 | 35.34602 | 140.94225 | 20322 ft | 453 kts | 30° |
| 2026-05-06 06:41 | 35.37191 | 140.96387 | 19914 ft | 448 kts | 29° |
| 2026-05-06 06:42 | 35.39751 | 140.98526 | 19507 ft | 443 kts | 29° |
| 2026-05-06 06:42 | 35.42285 | 141.00646 | 19109 ft | 439 kts | 30° |
| 2026-05-06 06:42 | 35.44792 | 141.02744 | 18730 ft | 434 kts | 30° |
| 2026-05-06 06:42 | 35.47284 | 141.04803 | 18304 ft | 429 kts | 27° |
| 2026-05-06 06:43 | 35.49948 | 141.06298 | 17759 ft | 414 kts | 9° |
| 2026-05-06 06:43 | 35.52739 | 141.06655 | 17230 ft | 397 kts | 349° |
| 2026-05-06 06:43 | 35.55450 | 141.06231 | 16723 ft | 390 kts | 344° |
| 2026-05-06 06:43 | 35.58117 | 141.05675 | 16227 ft | 388 kts | 344° |
| 2026-05-06 06:44 | 35.60766 | 141.05122 | 15742 ft | 385 kts | 344° |
| 2026-05-06 06:44 | 35.63406 | 141.04584 | 15261 ft | 383 kts | 345° |
| 2026-05-06 06:44 | 35.66027 | 141.04058 | 14785 ft | 381 kts | 345° |
| 2026-05-06 06:44 | 35.68635 | 141.03539 | 14333 ft | 378 kts | 345° |
| 2026-05-06 06:45 | 35.71226 | 141.03027 | 13859 ft | 376 kts | 346° |
| 2026-05-06 06:45 | 35.73743 | 141.02416 | 13321 ft | 370 kts | 339° |
| 2026-05-06 06:45 | 35.76062 | 141.01076 | 12727 ft | 360 kts | 320° |
| 2026-05-06 06:45 | 35.77793 | 140.98989 | 12184 ft | 351 kts | 302° |
| 2026-05-06 06:46 | 35.79089 | 140.96463 | 11629 ft | 348 kts | 296° |
| 2026-05-06 06:46 | 35.80281 | 140.93872 | 11065 ft | 348 kts | 296° |
| 2026-05-06 06:46 | 35.81464 | 140.91289 | 10687 ft | 342 kts | 297° |
| 2026-05-06 06:46 | 35.82623 | 140.88779 | 10493 ft | 332 kts | 297° |
| 2026-05-06 06:47 | 35.83748 | 140.86352 | 10318 ft | 321 kts | 297° |
| 2026-05-06 06:47 | 35.84837 | 140.84007 | 10157 ft | 310 kts | 297° |
| 2026-05-06 06:47 | 35.85889 | 140.81743 | 10049 ft | 298 kts | 297° |
| 2026-05-06 06:47 | 35.86906 | 140.79557 | 10021 ft | 292 kts | 297° |
| 2026-05-06 06:48 | 35.87918 | 140.77376 | 10019 ft | 293 kts | 297° |
| 2026-05-06 06:48 | 35.88928 | 140.75197 | 10016 ft | 293 kts | 297° |
| 2026-05-06 06:48 | 35.89942 | 140.73012 | 10011 ft | 294 kts | 297° |
| 2026-05-06 06:48 | 35.90957 | 140.70826 | 10013 ft | 294 kts | 297° |
| 2026-05-06 06:49 | 35.91973 | 140.68636 | 10009 ft | 294 kts | 297° |
| 2026-05-06 06:49 | 35.92979 | 140.66467 | 9725 ft | 291 kts | 297° |
| 2026-05-06 06:49 | 35.93981 | 140.64303 | 9330 ft | 290 kts | 297° |
| 2026-05-06 06:49 | 35.94979 | 140.62150 | 8980 ft | 287 kts | 297° |
| 2026-05-06 06:50 | 35.95965 | 140.60021 | 8643 ft | 284 kts | 297° |
| 2026-05-06 06:50 | 35.96939 | 140.57916 | 8317 ft | 281 kts | 297° |
| 2026-05-06 06:50 | 35.97892 | 140.55818 | 7964 ft | 278 kts | 294° |
| 2026-05-06 06:50 | 35.98529 | 140.53608 | 7659 ft | 271 kts | 279° |
| 2026-05-06 06:51 | 35.98867 | 140.51340 | 7362 ft | 267 kts | 277° |
| 2026-05-06 06:51 | 35.99157 | 140.49089 | 7020 ft | 265 kts | 277° |
| 2026-05-06 06:51 | 35.99448 | 140.46858 | 6716 ft | 262 kts | 277° |
| 2026-05-06 06:51 | 35.99739 | 140.44653 | 6373 ft | 259 kts | 277° |
| 2026-05-06 06:52 | 36.00033 | 140.42464 | 5987 ft | 258 kts | 277° |
| 2026-05-06 06:52 | 36.00324 | 140.40274 | 5584 ft | 258 kts | 277° |
| 2026-05-06 06:52 | 36.00613 | 140.38090 | 5218 ft | 257 kts | 277° |
| 2026-05-06 06:52 | 36.00903 | 140.35913 | 4834 ft | 257 kts | 278° |
| 2026-05-06 06:53 | 36.01112 | 140.33719 | 4512 ft | 257 kts | 268° |
| 2026-05-06 06:53 | 36.00766 | 140.31578 | 4249 ft | 254 kts | 245° |
| 2026-05-06 06:53 | 35.99936 | 140.29658 | 3957 ft | 254 kts | 238° |
| 2026-05-06 06:53 | 35.99024 | 140.27797 | 3632 ft | 251 kts | 237° |
| 2026-05-06 06:54 | 35.98118 | 140.26043 | 3446 ft | 233 kts | 231° |
| 2026-05-06 06:54 | 35.96951 | 140.24785 | 3239 ft | 218 kts | 206° |
| 2026-05-06 06:54 | 35.95503 | 140.24504 | 3090 ft | 209 kts | 176° |
| 2026-05-06 06:54 | 35.94121 | 140.24838 | 3037 ft | 197 kts | 162° |
| 2026-05-06 06:55 | 35.92959 | 140.25570 | 3005 ft | 177 kts | 150° |
| 2026-05-06 06:55 | 35.91945 | 140.26324 | 3001 ft | 167 kts | 153° |
| 2026-05-06 06:55 | 35.90947 | 140.27051 | 2988 ft | 167 kts | 153° |
| 2026-05-06 06:55 | 35.89944 | 140.27772 | 2937 ft | 168 kts | 153° |
| 2026-05-06 06:56 | 35.88951 | 140.28474 | 2755 ft | 160 kts | 153° |
| 2026-05-06 06:56 | 35.88015 | 140.29148 | 2539 ft | 153 kts | 153° |
| 2026-05-06 06:56 | 35.87112 | 140.29810 | 2324 ft | 148 kts | 153° |
| 2026-05-06 06:56 | 35.86245 | 140.30440 | 2130 ft | 142 kts | 154° |
| 2026-05-06 06:57 | 35.85412 | 140.31044 | 1939 ft | 140 kts | 153° |
| 2026-05-06 06:57 | 35.84576 | 140.31652 | 1753 ft | 139 kts | 153° |
| 2026-05-06 06:57 | 35.83730 | 140.32266 | 1559 ft | 139 kts | 153° |
| 2026-05-06 06:57 | 35.82906 | 140.32864 | 1383 ft | 139 kts | 154° |
| 2026-05-06 06:58 | 35.82075 | 140.33469 | 1181 ft | 138 kts | 154° |
| 2026-05-06 06:58 | 35.81246 | 140.34067 | 1001 ft | 139 kts | 153° |
| 2026-05-06 06:58 | 35.80415 | 140.34672 | 816 ft | 139 kts | 152° |
| 2026-05-06 06:58 | 35.79588 | 140.35272 | 651 ft | 137 kts | 150° |
| 2026-05-06 06:59 | 35.78767 | 140.35868 | 479 ft | 138 kts | 153° |
| 2026-05-06 06:59 | 35.77934 | 140.36474 | 297 ft | 138 kts | 151° |
| 2026-05-06 06:59 | 35.77110 | 140.37071 | 182 ft | 136 kts | 150° |
| 2026-05-06 06:59 | 35.76335 | 140.37631 | 148 ft | 114 kts | 150° |
| 2026-05-06 07:00 | 35.75949 | 140.37911 | 150 ft | 35 kts | 150° |
| 2026-05-06 07:00 | 35.75764 | 140.38046 | 152 ft | 25 kts | 146° |
| 2026-05-06 07:00 | 35.75651 | 140.38192 | 153 ft | 24 kts | 124° |
| 2026-05-06 07:00 | 35.75571 | 140.38358 | 151 ft | 21 kts | 120° |
| 2026-05-06 07:01 | 35.75534 | 140.38521 | 151 ft | 20 kts | 56° |
| 2026-05-06 07:01 | 35.75661 | 140.38500 | 151 ft | 22 kts | 332° |
| 2026-05-06 07:01 | 35.75803 | 140.38395 | 150 ft | 23 kts | 330° |
| 2026-05-06 07:01 | 35.75949 | 140.38293 | 150 ft | 24 kts | 330° |
| 2026-05-06 07:02 | 35.76065 | 140.38269 | 149 ft | 0 kts | 46° |
| 2026-05-06 07:02 | 35.76073 | 140.38288 | 149 ft | 7 kts | 64° |
| 2026-05-06 07:02 | 35.76107 | 140.38363 | 149 ft | 6 kts | 59° |
| 2026-05-06 07:02 | 35.76122 | 140.38394 | 149 ft | 0 kts | 59° |